sensor_id;sensor_type;location;lat;lon;timestamp;pressure;altitude;pressure_sealevel;temperature;humidity
78562;BME280;68963;52.138;5.446;2023-12-20T00:00:26;101598.66;;;5.68;100.00
78562;BME280;68963;52.138;5.446;2023-12-20T00:02:53;101589.28;;;5.66;100.00
78562;BME280;68963;52.138;5.446;2023-12-20T00:05:19;101598.09;;;5.65;100.00
78562;BME280;68963;52.138;5.446;2023-12-20T00:07:46;101589.44;;;5.64;100.00
78562;BME280;68963;52.138;5.446;2023-12-20T00:10:13;101584.47;;;5.61;100.00
78562;BME280;68963;52.138;5.446;2023-12-20T00:12:39;101579.69;;;5.56;100.00
78562;BME280;68963;52.138;5.446;2023-12-20T00:15:07;101579.94;;;5.53;100.00
78562;BME280;68963;52.138;5.446;2023-12-20T00:17:34;101579.25;;;5.51;100.00
78562;BME280;68963;52.138;5.446;2023-12-20T00:20:01;101572.53;;;5.49;100.00
78562;BME280;68963;52.138;5.446;2023-12-20T00:22:28;101580.47;;;5.47;100.00
78562;BME280;68963;52.138;5.446;2023-12-20T00:24:54;101582.53;;;5.44;100.00
78562;BME280;68963;52.138;5.446;2023-12-20T00:27:21;101579.25;;;5.42;100.00
78562;BME280;68963;52.138;5.446;2023-12-20T00:29:47;101569.06;;;5.39;100.00
78562;BME280;68963;52.138;5.446;2023-12-20T00:32:16;101574.56;;;5.36;100.00
78562;BME280;68963;52.138;5.446;2023-12-20T00:34:43;101575.63;;;5.33;100.00
78562;BME280;68963;52.138;5.446;2023-12-20T00:37:09;101578.66;;;5.28;100.00
78562;BME280;68963;52.138;5.446;2023-12-20T00:39:36;101580.47;;;5.28;100.00
78562;BME280;68963;52.138;5.446;2023-12-20T00:42:03;101577.44;;;5.23;100.00
78562;BME280;68963;52.138;5.446;2023-12-20T00:44:29;101578.53;;;5.20;100.00
78562;BME280;68963;52.138;5.446;2023-12-20T00:46:57;101574.53;;;5.16;100.00
78562;BME280;68963;52.138;5.446;2023-12-20T00:49:23;101576.44;;;5.14;100.00
78562;BME280;68963;52.138;5.446;2023-12-20T00:51:50;101574.78;;;5.13;100.00
78562;BME280;68963;52.138;5.446;2023-12-20T00:54:18;101570.66;;;5.11;100.00
78562;BME280;68963;52.138;5.446;2023-12-20T00:56:45;101569.00;;;5.09;100.00
78562;BME280;68963;52.138;5.446;2023-12-20T00:59:11;101581.34;;;5.07;100.00
78562;BME280;68963;52.138;5.446;2023-12-20T01:01:38;101572.97;;;5.04;100.00
78562;BME280;68963;52.138;5.446;2023-12-20T01:04:05;101574.09;;;5.01;100.00
78562;BME280;68963;52.138;5.446;2023-12-20T01:06:32;101567.19;;;5.00;100.00
78562;BME280;68963;52.138;5.446;2023-12-20T01:08:58;101566.38;;;5.00;100.00
78562;BME280;68963;52.138;5.446;2023-12-20T01:11:25;101565.94;;;4.95;100.00
78562;BME280;68963;52.138;5.446;2023-12-20T01:13:51;101555.91;;;4.90;100.00
78562;BME280;68963;52.138;5.446;2023-12-20T01:16:18;101558.53;;;4.90;100.00
78562;BME280;68963;52.138;5.446;2023-12-20T01:18:44;101563.19;;;4.87;100.00
78562;BME280;68963;52.138;5.446;2023-12-20T01:21:12;101554.25;;;4.89;100.00
78562;BME280;68963;52.138;5.446;2023-12-20T01:23:38;101564.81;;;4.88;100.00
78562;BME280;68963;52.138;5.446;2023-12-20T01:26:05;101577.31;;;4.84;100.00
78562;BME280;68963;52.138;5.446;2023-12-20T01:28:32;101582.53;;;4.84;100.00
78562;BME280;68963;52.138;5.446;2023-12-20T01:30:58;101585.00;;;4.85;100.00
78562;BME280;68963;52.138;5.446;2023-12-20T01:33:25;101589.84;;;4.90;100.00
78562;BME280;68963;52.138;5.446;2023-12-20T01:35:52;101581.06;;;4.91;100.00
78562;BME280;68963;52.138;5.446;2023-12-20T01:38:18;101583.50;;;4.93;100.00
78562;BME280;68963;52.138;5.446;2023-12-20T01:40:46;101570.09;;;4.97;100.00
78562;BME280;68963;52.138;5.446;2023-12-20T01:43:13;101586.31;;;5.01;100.00
78562;BME280;68963;52.138;5.446;2023-12-20T01:45:39;101577.81;;;5.08;100.00
78562;BME280;68963;52.138;5.446;2023-12-20T01:48:07;101568.59;;;5.14;100.00
78562;BME280;68963;52.138;5.446;2023-12-20T01:50:36;101564.09;;;5.16;100.00
78562;BME280;68963;52.138;5.446;2023-12-20T01:53:05;101559.94;;;5.14;100.00
78562;BME280;68963;52.138;5.446;2023-12-20T01:55:35;101566.13;;;5.13;100.00
78562;BME280;68963;52.138;5.446;2023-12-20T01:58:02;101562.81;;;5.11;100.00
78562;BME280;68963;52.138;5.446;2023-12-20T02:00:30;101562.00;;;5.10;100.00
78562;BME280;68963;52.138;5.446;2023-12-20T02:03:00;101563.63;;;5.11;100.00
78562;BME280;68963;52.138;5.446;2023-12-20T02:05:27;101568.03;;;5.11;100.00
78562;BME280;68963;52.138;5.446;2023-12-20T02:07:54;101564.59;;;5.10;100.00
78562;BME280;68963;52.138;5.446;2023-12-20T02:10:21;101569.13;;;5.08;100.00
78562;BME280;68963;52.138;5.446;2023-12-20T02:12:48;101564.59;;;5.10;100.00
78562;BME280;68963;52.138;5.446;2023-12-20T02:15:14;101562.56;;;5.14;100.00
78562;BME280;68963;52.138;5.446;2023-12-20T02:17:41;101564.34;;;5.13;100.00
78562;BME280;68963;52.138;5.446;2023-12-20T02:20:08;101558.03;;;5.16;100.00
78562;BME280;68963;52.138;5.446;2023-12-20T02:22:35;101556.91;;;5.18;100.00
78562;BME280;68963;52.138;5.446;2023-12-20T02:25:02;101555.00;;;5.20;100.00
78562;BME280;68963;52.138;5.446;2023-12-20T02:27:29;101564.38;;;5.23;100.00
78562;BME280;68963;52.138;5.446;2023-12-20T02:29:56;101560.09;;;5.22;100.00
78562;BME280;68963;52.138;5.446;2023-12-20T02:32:24;101560.25;;;5.20;100.00
78562;BME280;68963;52.138;5.446;2023-12-20T02:34:54;101550.06;;;5.17;100.00
78562;BME280;68963;52.138;5.446;2023-12-20T02:37:21;101554.31;;;5.18;100.00
78562;BME280;68963;52.138;5.446;2023-12-20T02:39:48;101550.88;;;5.18;100.00
78562;BME280;68963;52.138;5.446;2023-12-20T02:42:14;101551.59;;;5.20;100.00
78562;BME280;68963;52.138;5.446;2023-12-20T02:44:41;101548.97;;;5.20;100.00
78562;BME280;68963;52.138;5.446;2023-12-20T02:47:07;101540.31;;;5.19;100.00
78562;BME280;68963;52.138;5.446;2023-12-20T02:49:34;101538.63;;;5.18;100.00
78562;BME280;68963;52.138;5.446;2023-12-20T02:52:00;101536.03;;;5.18;100.00
78562;BME280;68963;52.138;5.446;2023-12-20T02:54:27;101534.78;;;5.22;100.00
78562;BME280;68963;52.138;5.446;2023-12-20T02:56:53;101534.78;;;5.22;100.00
78562;BME280;68963;52.138;5.446;2023-12-20T02:59:20;101538.53;;;5.20;100.00
78562;BME280;68963;52.138;5.446;2023-12-20T03:01:47;101523.13;;;5.17;100.00
78562;BME280;68963;52.138;5.446;2023-12-20T03:04:13;101528.47;;;5.15;100.00
78562;BME280;68963;52.138;5.446;2023-12-20T03:06:40;101521.59;;;5.14;100.00
78562;BME280;68963;52.138;5.446;2023-12-20T03:09:07;101526.28;;;5.20;100.00
78562;BME280;68963;52.138;5.446;2023-12-20T03:11:34;101519.00;;;5.24;100.00
78562;BME280;68963;52.138;5.446;2023-12-20T03:14:00;101520.78;;;5.23;100.00
78562;BME280;68963;52.138;5.446;2023-12-20T03:16:27;101521.72;;;5.22;100.00
78562;BME280;68963;52.138;5.446;2023-12-20T03:18:54;101519.81;;;5.24;100.00
78562;BME280;68963;52.138;5.446;2023-12-20T03:21:20;101515.97;;;5.28;100.00
78562;BME280;68963;52.138;5.446;2023-12-20T03:23:47;101509.78;;;5.29;100.00
78562;BME280;68963;52.138;5.446;2023-12-20T03:26:13;101507.31;;;5.28;100.00
78562;BME280;68963;52.138;5.446;2023-12-20T03:28:40;101500.56;;;5.25;100.00
78562;BME280;68963;52.138;5.446;2023-12-20T03:31:07;101501.28;;;5.27;100.00
78562;BME280;68963;52.138;5.446;2023-12-20T03:33:33;101494.38;;;5.26;100.00
78562;BME280;68963;52.138;5.446;2023-12-20T03:36:00;101508.69;;;5.32;100.00
78562;BME280;68963;52.138;5.446;2023-12-20T03:38:26;101508.16;;;5.38;100.00
78562;BME280;68963;52.138;5.446;2023-12-20T03:40:53;101502.50;;;5.43;100.00
78562;BME280;68963;52.138;5.446;2023-12-20T03:43:20;101512.81;;;5.44;100.00
78562;BME280;68963;52.138;5.446;2023-12-20T03:45:46;101513.09;;;5.51;100.00
78562;BME280;68963;52.138;5.446;2023-12-20T03:48:13;101514.34;;;5.56;100.00
78562;BME280;68963;52.138;5.446;2023-12-20T03:50:40;101512.00;;;5.53;100.00
78562;BME280;68963;52.138;5.446;2023-12-20T03:53:06;101505.97;;;5.53;100.00
78562;BME280;68963;52.138;5.446;2023-12-20T03:55:33;101511.31;;;5.51;100.00
78562;BME280;68963;52.138;5.446;2023-12-20T03:57:59;101501.66;;;5.52;100.00
78562;BME280;68963;52.138;5.446;2023-12-20T04:00:26;101511.19;;;5.53;100.00
78562;BME280;68963;52.138;5.446;2023-12-20T04:02:52;101509.38;;;5.53;100.00
78562;BME280;68963;52.138;5.446;2023-12-20T04:05:19;101510.06;;;5.55;100.00
78562;BME280;68963;52.138;5.446;2023-12-20T04:07:46;101504.56;;;5.58;100.00
78562;BME280;68963;52.138;5.446;2023-12-20T04:10:13;101506.63;;;5.65;100.00
78562;BME280;68963;52.138;5.446;2023-12-20T04:12:39;101510.22;;;5.64;100.00
78562;BME280;68963;52.138;5.446;2023-12-20T04:15:06;101507.31;;;5.67;100.00
78562;BME280;68963;52.138;5.446;2023-12-20T04:17:36;101497.41;;;5.70;100.00
78562;BME280;68963;52.138;5.446;2023-12-20T04:20:03;101494.66;;;5.72;100.00
78562;BME280;68963;52.138;5.446;2023-12-20T04:22:30;101488.72;;;5.70;100.00
78562;BME280;68963;52.138;5.446;2023-12-20T04:24:57;101495.09;;;5.67;100.00
78562;BME280;68963;52.138;5.446;2023-12-20T04:27:24;101484.47;;;5.69;100.00
78562;BME280;68963;52.138;5.446;2023-12-20T04:29:50;101498.91;;;5.73;100.00
78562;BME280;68963;52.138;5.446;2023-12-20T04:32:17;101497.53;;;5.78;100.00
78562;BME280;68963;52.138;5.446;2023-12-20T04:34:43;101506.59;;;5.84;100.00
78562;BME280;68963;52.138;5.446;2023-12-20T04:37:10;101504.25;;;5.91;100.00
78562;BME280;68963;52.138;5.446;2023-12-20T04:39:37;101512.09;;;5.91;100.00
78562;BME280;68963;52.138;5.446;2023-12-20T04:42:03;101500.56;;;5.93;100.00
78562;BME280;68963;52.138;5.446;2023-12-20T04:44:31;101487.19;;;5.96;100.00
78562;BME280;68963;52.138;5.446;2023-12-20T04:46:58;101496.81;;;5.96;100.00
78562;BME280;68963;52.138;5.446;2023-12-20T04:49:24;101489.69;;;5.98;100.00
78562;BME280;68963;52.138;5.446;2023-12-20T04:51:51;101498.19;;;6.00;100.00
78562;BME280;68963;52.138;5.446;2023-12-20T04:54:18;101491.03;;;6.02;100.00
78562;BME280;68963;52.138;5.446;2023-12-20T04:56:45;101491.59;;;6.05;100.00
78562;BME280;68963;52.138;5.446;2023-12-20T04:59:11;101488.00;;;6.07;100.00
78562;BME280;68963;52.138;5.446;2023-12-20T05:01:38;101480.03;;;6.08;100.00
78562;BME280;68963;52.138;5.446;2023-12-20T05:04:05;101481.50;;;6.11;100.00
78562;BME280;68963;52.138;5.446;2023-12-20T05:06:31;101475.19;;;6.13;100.00
78562;BME280;68963;52.138;5.446;2023-12-20T05:08:58;101488.25;;;6.13;100.00
78562;BME280;68963;52.138;5.446;2023-12-20T05:11:24;101492.22;;;6.17;100.00
78562;BME280;68963;52.138;5.446;2023-12-20T05:13:51;101483.28;;;6.20;100.00
78562;BME280;68963;52.138;5.446;2023-12-20T05:16:17;101490.03;;;6.22;100.00
78562;BME280;68963;52.138;5.446;2023-12-20T05:18:47;101487.09;;;6.25;100.00
78562;BME280;68963;52.138;5.446;2023-12-20T05:21:14;101478.16;;;6.28;100.00
78562;BME280;68963;52.138;5.446;2023-12-20T05:23:40;101484.09;;;6.30;100.00
78562;BME280;68963;52.138;5.446;2023-12-20T05:26:07;101494.53;;;6.30;100.00
78562;BME280;68963;52.138;5.446;2023-12-20T05:28:34;101486.69;;;6.30;100.00
78562;BME280;68963;52.138;5.446;2023-12-20T05:31:00;101492.88;;;6.29;100.00
78562;BME280;68963;52.138;5.446;2023-12-20T05:33:27;101487.66;;;6.29;100.00
78562;BME280;68963;52.138;5.446;2023-12-20T05:35:54;101483.38;;;6.28;100.00
78562;BME280;68963;52.138;5.446;2023-12-20T05:38:20;101485.03;;;6.29;100.00
78562;BME280;68963;52.138;5.446;2023-12-20T05:40:47;101491.78;;;6.32;100.00
78562;BME280;68963;52.138;5.446;2023-12-20T05:43:13;101486.38;;;6.33;100.00
78562;BME280;68963;52.138;5.446;2023-12-20T05:45:40;101489.69;;;6.35;100.00
78562;BME280;68963;52.138;5.446;2023-12-20T05:48:06;101478.13;;;6.38;100.00
78562;BME280;68963;52.138;5.446;2023-12-20T05:50:33;101487.91;;;6.36;100.00
78562;BME280;68963;52.138;5.446;2023-12-20T05:53:01;101484.31;;;6.37;100.00
78562;BME280;68963;52.138;5.446;2023-12-20T05:55:27;101490.50;;;6.36;100.00
78562;BME280;68963;52.138;5.446;2023-12-20T05:57:54;101487.06;;;6.35;100.00
78562;BME280;68963;52.138;5.446;2023-12-20T06:00:21;101480.59;;;6.39;100.00
78562;BME280;68963;52.138;5.446;2023-12-20T06:02:47;101474.38;;;6.40;100.00
78562;BME280;68963;52.138;5.446;2023-12-20T06:05:14;101478.50;;;6.43;100.00
78562;BME280;68963;52.138;5.446;2023-12-20T06:07:41;101482.75;;;6.44;100.00
78562;BME280;68963;52.138;5.446;2023-12-20T06:10:08;101490.47;;;6.45;100.00
78562;BME280;68963;52.138;5.446;2023-12-20T06:12:34;101475.59;;;6.46;100.00
78562;BME280;68963;52.138;5.446;2023-12-20T06:15:03;101474.78;;;6.45;100.00
78562;BME280;68963;52.138;5.446;2023-12-20T06:17:29;101479.19;;;6.45;100.00
78562;BME280;68963;52.138;5.446;2023-12-20T06:19:57;101471.34;;;6.45;100.00
78562;BME280;68963;52.138;5.446;2023-12-20T06:22:24;101472.00;;;6.47;100.00
78562;BME280;68963;52.138;5.446;2023-12-20T06:24:51;101478.88;;;6.48;100.00
78562;BME280;68963;52.138;5.446;2023-12-20T06:27:17;101470.75;;;6.51;100.00
78562;BME280;68963;52.138;5.446;2023-12-20T06:29:44;101467.03;;;6.53;100.00
78562;BME280;68963;52.138;5.446;2023-12-20T06:32:11;101467.31;;;6.50;100.00
78562;BME280;68963;52.138;5.446;2023-12-20T06:34:38;101469.81;;;6.52;100.00
78562;BME280;68963;52.138;5.446;2023-12-20T06:37:05;101479.81;;;6.57;100.00
78562;BME280;68963;52.138;5.446;2023-12-20T06:39:31;101465.75;;;6.58;100.00
78562;BME280;68963;52.138;5.446;2023-12-20T06:42:00;101469.34;;;6.57;100.00
78562;BME280;68963;52.138;5.446;2023-12-20T06:44:26;101477.03;;;6.58;100.00
78562;BME280;68963;52.138;5.446;2023-12-20T06:46:53;101471.38;;;6.63;100.00
78562;BME280;68963;52.138;5.446;2023-12-20T06:49:19;101463.50;;;6.63;100.00
78562;BME280;68963;52.138;5.446;2023-12-20T06:51:46;101447.00;;;6.62;100.00
78562;BME280;68963;52.138;5.446;2023-12-20T06:54:13;101457.88;;;6.67;100.00
78562;BME280;68963;52.138;5.446;2023-12-20T06:56:39;101450.97;;;6.66;100.00
78562;BME280;68963;52.138;5.446;2023-12-20T06:59:07;101455.53;;;6.64;100.00
78562;BME280;68963;52.138;5.446;2023-12-20T07:01:33;101456.34;;;6.65;100.00
78562;BME280;68963;52.138;5.446;2023-12-20T07:04:00;101452.75;;;6.66;100.00
78562;BME280;68963;52.138;5.446;2023-12-20T07:06:27;101461.44;;;6.66;100.00
78562;BME280;68963;52.138;5.446;2023-12-20T07:08:53;101455.09;;;6.69;100.00
78562;BME280;68963;52.138;5.446;2023-12-20T07:11:20;101459.50;;;6.68;100.00
78562;BME280;68963;52.138;5.446;2023-12-20T07:13:46;101458.09;;;6.74;100.00
78562;BME280;68963;52.138;5.446;2023-12-20T07:16:13;101461.53;;;6.74;100.00
78562;BME280;68963;52.138;5.446;2023-12-20T07:18:40;101456.31;;;6.74;100.00
78562;BME280;68963;52.138;5.446;2023-12-20T07:21:06;101450.38;;;6.72;100.00
78562;BME280;68963;52.138;5.446;2023-12-20T07:23:34;101458.94;;;6.74;100.00
78562;BME280;68963;52.138;5.446;2023-12-20T07:26:00;101452.56;;;6.77;100.00
78562;BME280;68963;52.138;5.446;2023-12-20T07:28:27;101444.41;;;6.80;100.00
78562;BME280;68963;52.138;5.446;2023-12-20T07:30:54;101447.19;;;6.78;100.00
78562;BME280;68963;52.138;5.446;2023-12-20T07:33:20;101452.25;;;6.80;100.00
78562;BME280;68963;52.138;5.446;2023-12-20T07:35:48;101435.72;;;6.80;100.00
78562;BME280;68963;52.138;5.446;2023-12-20T07:38:15;101435.91;;;6.78;100.00
78562;BME280;68963;52.138;5.446;2023-12-20T07:40:41;101433.41;;;6.76;100.00
78562;BME280;68963;52.138;5.446;2023-12-20T07:43:08;101435.19;;;6.76;100.00
78562;BME280;68963;52.138;5.446;2023-12-20T07:45:35;101439.03;;;6.82;100.00
78562;BME280;68963;52.138;5.446;2023-12-20T07:48:01;101453.59;;;6.84;100.00
78562;BME280;68963;52.138;5.446;2023-12-20T07:50:28;101450.69;;;6.87;100.00
78562;BME280;68963;52.138;5.446;2023-12-20T07:52:55;101450.56;;;6.89;100.00
78562;BME280;68963;52.138;5.446;2023-12-20T07:55:22;101459.25;;;6.89;100.00
78562;BME280;68963;52.138;5.446;2023-12-20T07:57:49;101460.88;;;6.90;100.00
78562;BME280;68963;52.138;5.446;2023-12-20T08:00:15;101453.03;;;6.90;100.00
78562;BME280;68963;52.138;5.446;2023-12-20T08:02:42;101475.47;;;6.93;100.00
78562;BME280;68963;52.138;5.446;2023-12-20T08:05:09;101470.91;;;6.95;100.00
78562;BME280;68963;52.138;5.446;2023-12-20T08:07:36;101487.44;;;6.95;100.00
78562;BME280;68963;52.138;5.446;2023-12-20T08:10:02;101481.91;;;6.98;100.00
78562;BME280;68963;52.138;5.446;2023-12-20T08:12:29;101486.84;;;7.01;100.00
78562;BME280;68963;52.138;5.446;2023-12-20T08:14:56;101481.63;;;7.01;100.00
78562;BME280;68963;52.138;5.446;2023-12-20T08:17:23;101480.50;;;7.04;100.00
78562;BME280;68963;52.138;5.446;2023-12-20T08:19:51;101480.88;;;7.09;100.00
78562;BME280;68963;52.138;5.446;2023-12-20T08:22:17;101476.91;;;7.05;100.00
78562;BME280;68963;52.138;5.446;2023-12-20T08:24:44;101468.88;;;7.07;100.00
78562;BME280;68963;52.138;5.446;2023-12-20T08:27:11;101465.44;;;7.06;100.00
78562;BME280;68963;52.138;5.446;2023-12-20T08:29:37;101462.81;;;7.06;100.00
78562;BME280;68963;52.138;5.446;2023-12-20T08:32:04;101465.84;;;7.11;100.00
78562;BME280;68963;52.138;5.446;2023-12-20T08:34:31;101471.09;;;7.11;100.00
78562;BME280;68963;52.138;5.446;2023-12-20T08:36:57;101459.78;;;7.11;100.00
78562;BME280;68963;52.138;5.446;2023-12-20T08:39:24;101456.72;;;7.15;100.00
78562;BME280;68963;52.138;5.446;2023-12-20T08:41:51;101459.84;;;7.19;100.00
78562;BME280;68963;52.138;5.446;2023-12-20T08:44:17;101459.16;;;7.17;100.00
78562;BME280;68963;52.138;5.446;2023-12-20T08:46:44;101463.41;;;7.18;100.00
78562;BME280;68963;52.138;5.446;2023-12-20T08:49:10;101460.16;;;7.16;100.00
78562;BME280;68963;52.138;5.446;2023-12-20T08:51:37;101461.13;;;7.15;100.00
78562;BME280;68963;52.138;5.446;2023-12-20T08:54:07;101461.78;;;7.17;100.00
78562;BME280;68963;52.138;5.446;2023-12-20T08:56:34;101461.13;;;7.15;100.00
78562;BME280;68963;52.138;5.446;2023-12-20T08:59:01;101462.06;;;7.14;100.00
78562;BME280;68963;52.138;5.446;2023-12-20T09:01:27;101464.03;;;7.12;100.00
78562;BME280;68963;52.138;5.446;2023-12-20T09:03:54;101469.13;;;7.13;100.00
78562;BME280;68963;52.138;5.446;2023-12-20T09:06:20;101460.44;;;7.13;100.00
78562;BME280;68963;52.138;5.446;2023-12-20T09:08:47;101466.78;;;7.10;100.00
78562;BME280;68963;52.138;5.446;2023-12-20T09:11:14;101457.97;;;7.11;100.00
78562;BME280;68963;52.138;5.446;2023-12-20T09:13:40;101450.41;;;7.08;100.00
78562;BME280;68963;52.138;5.446;2023-12-20T09:16:08;101458.13;;;7.10;100.00
78562;BME280;68963;52.138;5.446;2023-12-20T09:18:35;101461.56;;;7.10;100.00
78562;BME280;68963;52.138;5.446;2023-12-20T09:21:01;101458.94;;;7.10;100.00
78562;BME280;68963;52.138;5.446;2023-12-20T09:23:28;101460.59;;;7.11;100.00
78562;BME280;68963;52.138;5.446;2023-12-20T09:25:55;101457.00;;;7.12;100.00
78562;BME280;68963;52.138;5.446;2023-12-20T09:28:23;101459.31;;;7.15;100.00
78562;BME280;68963;52.138;5.446;2023-12-20T09:30:50;101457.53;;;7.16;100.00
78562;BME280;68963;52.138;5.446;2023-12-20T09:33:17;101455.56;;;7.18;100.00
78562;BME280;68963;52.138;5.446;2023-12-20T09:35:43;101457.75;;;7.22;100.00
78562;BME280;68963;52.138;5.446;2023-12-20T09:38:10;101454.00;;;7.25;100.00
78562;BME280;68963;52.138;5.446;2023-12-20T09:40:41;101458.81;;;7.30;100.00
78562;BME280;68963;52.138;5.446;2023-12-20T09:43:13;101459.16;;;7.35;100.00
78562;BME280;68963;52.138;5.446;2023-12-20T09:45:41;101458.69;;;7.39;100.00
78562;BME280;68963;52.138;5.446;2023-12-20T09:48:10;101458.91;;;7.46;100.00
78562;BME280;68963;52.138;5.446;2023-12-20T09:50:37;101468.81;;;7.52;100.00
78562;BME280;68963;52.138;5.446;2023-12-20T09:53:04;101468.50;;;7.55;100.00
78562;BME280;68963;52.138;5.446;2023-12-20T09:55:32;101458.69;;;7.57;100.00
78562;BME280;68963;52.138;5.446;2023-12-20T09:57:59;101464.97;;;7.64;100.00
78562;BME280;68963;52.138;5.446;2023-12-20T10:00:26;101463.97;;;7.65;100.00
78562;BME280;68963;52.138;5.446;2023-12-20T10:02:57;101470.41;;;7.71;100.00
78562;BME280;68963;52.138;5.446;2023-12-20T10:05:33;101466.50;;;7.75;100.00
78562;BME280;68963;52.138;5.446;2023-12-20T10:08:00;101480.97;;;7.79;100.00
78562;BME280;68963;52.138;5.446;2023-12-20T10:10:28;101467.38;;;7.84;100.00
78562;BME280;68963;52.138;5.446;2023-12-20T10:13:11;101484.78;;;7.85;100.00
78562;BME280;68963;52.138;5.446;2023-12-20T10:15:38;101478.72;;;7.84;100.00
78562;BME280;68963;52.138;5.446;2023-12-20T10:18:05;101473.31;;;7.86;100.00
78562;BME280;68963;52.138;5.446;2023-12-20T10:20:32;101478.25;;;7.89;100.00
78562;BME280;68963;52.138;5.446;2023-12-20T10:23:00;101483.50;;;7.89;100.00
78562;BME280;68963;52.138;5.446;2023-12-20T10:25:27;101473.50;;;7.92;100.00
78562;BME280;68963;52.138;5.446;2023-12-20T10:28:13;101487.44;;;7.93;100.00
78562;BME280;68963;52.138;5.446;2023-12-20T10:30:41;101461.88;;;7.95;100.00
78562;BME280;68963;52.138;5.446;2023-12-20T10:33:09;101457.00;;;8.00;100.00
78562;BME280;68963;52.138;5.446;2023-12-20T10:35:37;101461.78;;;8.05;100.00
78562;BME280;68963;52.138;5.446;2023-12-20T10:38:08;101453.72;;;8.06;100.00
78562;BME280;68963;52.138;5.446;2023-12-20T10:40:36;101452.78;;;8.07;100.00
78562;BME280;68963;52.138;5.446;2023-12-20T10:43:04;101457.03;;;8.08;100.00
78562;BME280;68963;52.138;5.446;2023-12-20T10:45:31;101453.13;;;8.12;100.00
78562;BME280;68963;52.138;5.446;2023-12-20T10:47:58;101449.88;;;8.18;100.00
78562;BME280;68963;52.138;5.446;2023-12-20T10:50:29;101451.03;;;8.24;100.00
78562;BME280;68963;52.138;5.446;2023-12-20T10:52:57;101446.59;;;8.24;100.00
78562;BME280;68963;52.138;5.446;2023-12-20T10:55:25;101445.34;;;8.29;100.00
78562;BME280;68963;52.138;5.446;2023-12-20T10:58:00;101432.72;;;8.32;100.00
78562;BME280;68963;52.138;5.446;2023-12-20T11:00:29;101426.16;;;8.36;100.00
78562;BME280;68963;52.138;5.446;2023-12-20T11:03:00;101432.91;;;8.39;100.00
78562;BME280;68963;52.138;5.446;2023-12-20T11:08:15;101443.47;;;8.47;100.00
78562;BME280;68963;52.138;5.446;2023-12-20T11:10:55;101423.44;;;8.46;100.00
78562;BME280;68963;52.138;5.446;2023-12-20T11:13:37;101429.34;;;8.48;100.00
78562;BME280;68963;52.138;5.446;2023-12-20T11:16:07;101425.59;;;8.51;100.00
78562;BME280;68963;52.138;5.446;2023-12-20T11:18:34;101422.63;;;8.54;100.00
78562;BME280;68963;52.138;5.446;2023-12-20T11:21:02;101432.81;;;8.57;100.00
78562;BME280;68963;52.138;5.446;2023-12-20T11:23:32;101429.53;;;8.55;100.00
78562;BME280;68963;52.138;5.446;2023-12-20T11:26:02;101408.03;;;8.51;100.00
78562;BME280;68963;52.138;5.446;2023-12-20T11:28:29;101405.06;;;8.46;100.00
78562;BME280;68963;52.138;5.446;2023-12-20T11:31:00;101404.22;;;8.45;100.00
78562;BME280;68963;52.138;5.446;2023-12-20T11:33:37;101404.09;;;8.55;100.00
78562;BME280;68963;52.138;5.446;2023-12-20T11:36:13;101402.66;;;8.69;100.00
78562;BME280;68963;52.138;5.446;2023-12-20T11:39:09;101404.00;;;8.81;100.00
78562;BME280;68963;52.138;5.446;2023-12-20T11:41:39;101402.03;;;8.91;100.00
78562;BME280;68963;52.138;5.446;2023-12-20T11:44:05;101405.31;;;8.93;100.00
78562;BME280;68963;52.138;5.446;2023-12-20T11:46:33;101397.94;;;8.89;100.00
78562;BME280;68963;52.138;5.446;2023-12-20T11:49:00;101398.09;;;8.87;100.00
78562;BME280;68963;52.138;5.446;2023-12-20T11:51:27;101395.78;;;8.84;100.00
78562;BME280;68963;52.138;5.446;2023-12-20T11:53:54;101393.31;;;8.83;100.00
78562;BME280;68963;52.138;5.446;2023-12-20T11:56:21;101374.78;;;8.84;100.00
78562;BME280;68963;52.138;5.446;2023-12-20T11:58:47;101380.53;;;8.88;100.00
78562;BME280;68963;52.138;5.446;2023-12-20T12:01:16;101368.03;;;8.90;100.00
78562;BME280;68963;52.138;5.446;2023-12-20T12:03:43;101381.16;;;8.90;100.00
78562;BME280;68963;52.138;5.446;2023-12-20T12:06:10;101375.78;;;8.91;100.00
78562;BME280;68963;52.138;5.446;2023-12-20T12:08:37;101393.47;;;8.89;100.00
78562;BME280;68963;52.138;5.446;2023-12-20T12:11:04;101382.34;;;8.87;100.00
78562;BME280;68963;52.138;5.446;2023-12-20T12:13:31;101379.72;;;8.87;100.00
78562;BME280;68963;52.138;5.446;2023-12-20T12:15:58;101399.06;;;8.86;100.00
78562;BME280;68963;52.138;5.446;2023-12-20T12:18:25;101396.44;;;8.86;100.00
78562;BME280;68963;52.138;5.446;2023-12-20T12:21:00;101390.38;;;8.86;100.00
78562;BME280;68963;52.138;5.446;2023-12-20T12:23:26;101386.59;;;8.88;100.00
78562;BME280;68963;52.138;5.446;2023-12-20T12:25:54;101385.28;;;8.92;100.00
78562;BME280;68963;52.138;5.446;2023-12-20T12:28:21;101385.09;;;8.94;100.00
78562;BME280;68963;52.138;5.446;2023-12-20T12:31:00;101378.88;;;8.95;100.00
78562;BME280;68963;52.138;5.446;2023-12-20T12:33:27;101367.38;;;8.96;100.00
78562;BME280;68963;52.138;5.446;2023-12-20T12:35:54;101364.91;;;8.94;100.00
78562;BME280;68963;52.138;5.446;2023-12-20T12:38:22;101357.38;;;8.91;100.00
78562;BME280;68963;52.138;5.446;2023-12-20T12:40:49;101359.16;;;8.91;100.00
78562;BME280;68963;52.138;5.446;2023-12-20T12:43:16;101359.34;;;8.89;100.00
78562;BME280;68963;52.138;5.446;2023-12-20T12:45:43;101346.38;;;8.88;100.00
78562;BME280;68963;52.138;5.446;2023-12-20T12:48:10;101343.56;;;8.89;100.00
78562;BME280;68963;52.138;5.446;2023-12-20T12:50:37;101337.69;;;8.87;100.00
78562;BME280;68963;52.138;5.446;2023-12-20T12:53:03;101350.97;;;8.86;100.00